Time;durP1;ratioP1;P1;durP2;ratioP2;P2;SDS_P1;SDS_P2;PMS_P1;PMS_P2;Temp;Humidity;BMP_temperature;BMP_pressure;BME280_temperature;BME280_humidity;BME280_pressure;Samples;Min_cycle;Max_cycle;Signal;HPM_P1;HPM_P2
2022/03/02 00:01:00;;;;;;;0.40;0.40;;;1.40;67.70;;;;;;4993768;28;20186;-67
2022/03/02 00:03:26;;;;;;;0.30;0.30;;;1.30;67.60;;;;;;4993837;28;20200;-68
2022/03/02 00:05:52;;;;;;;0.40;0.40;;;1.30;68.00;;;;;;4993803;28;20251;-67
2022/03/02 00:08:18;;;;;;;0.30;0.30;;;1.30;68.10;;;;;;4993751;28;20419;-68
2022/03/02 00:10:44;;;;;;;0.40;0.40;;;1.30;68.80;;;;;;4993328;28;20176;-68
2022/03/02 00:13:09;;;;;;;0.30;0.30;;;1.30;68.80;;;;;;4993508;28;20967;-68
2022/03/02 00:15:35;;;;;;;0.40;0.40;;;1.40;68.00;;;;;;4993836;28;20173;-68
2022/03/02 00:18:01;;;;;;;0.30;0.30;;;1.40;67.50;;;;;;4976158;28;20717;-68
2022/03/02 00:20:27;;;;;;;0.40;0.40;;;1.40;67.60;;;;;;4993492;28;20256;-67
2022/03/02 00:22:53;;;;;;;0.40;0.40;;;1.30;67.10;;;;;;4993672;28;20192;-68
2022/03/02 00:25:20;;;;;;;0.30;0.30;;;1.30;67.80;;;;;;4993487;28;20183;-69
2022/03/02 00:27:46;;;;;;;0.40;0.40;;;1.30;68.30;;;;;;4993509;28;20172;-67
2022/03/02 00:30:11;;;;;;;0.43;0.43;;;1.10;67.90;;;;;;4995209;28;20259;-67
2022/03/02 00:32:38;;;;;;;0.30;0.30;;;1.00;67.90;;;;;;4996989;28;20864;-68
2022/03/02 00:35:05;;;;;;;0.40;0.40;;;1.10;68.00;;;;;;4996996;28;20172;-68
2022/03/02 00:37:31;;;;;;;0.30;0.30;;;1.10;68.00;;;;;;4996944;28;20208;-68
2022/03/02 00:39:57;;;;;;;0.43;0.43;;;1.10;68.10;;;;;;4996784;28;20638;-68
2022/03/02 00:42:23;;;;;;;0.40;0.40;;;1.20;67.90;;;;;;4996758;28;20195;-68
2022/03/02 00:44:49;;;;;;;0.40;0.40;;;1.20;68.30;;;;;;4997031;28;20550;-67
2022/03/02 00:47:14;;;;;;;0.30;0.30;;;1.20;68.90;;;;;;4996776;28;20175;-67
2022/03/02 00:49:40;;;;;;;0.30;0.30;;;1.20;68.40;;;;;;4996843;28;20260;-68
2022/03/02 00:52:09;;;;;;;0.40;0.40;;;1.30;67.90;;;;;;4996603;28;20955;-67
2022/03/02 00:54:35;;;;;;;0.40;0.40;;;1.30;68.00;;;;;;4996628;28;20173;-68
2022/03/02 00:57:00;;;;;;;0.30;0.30;;;1.30;67.60;;;;;;4996650;28;20200;-68
2022/03/02 00:59:26;;;;;;;0.50;0.50;;;1.30;67.90;;;;;;4996576;28;20878;-67
2022/03/02 01:01:52;;;;;;;0.40;0.40;;;1.30;67.80;;;;;;4996464;28;20172;-69
2022/03/02 01:04:17;;;;;;;0.40;0.40;;;1.20;67.40;;;;;;4978886;28;20215;-67
2022/03/02 01:06:43;;;;;;;0.60;0.60;;;1.20;67.20;;;;;;4996665;28;20220;-67
2022/03/02 01:09:09;;;;;;;0.40;0.40;;;1.20;67.60;;;;;;4996539;28;20322;-67
2022/03/02 01:11:34;;;;;;;0.30;0.30;;;1.10;67.60;;;;;;4996158;28;20199;-68
2022/03/02 01:14:00;;;;;;;0.30;0.30;;;1.10;68.60;;;;;;4996238;28;20196;-68
2022/03/02 01:16:26;;;;;;;0.37;0.37;;;1.00;69.00;;;;;;4996423;28;20289;-67
2022/03/02 01:18:52;;;;;;;0.40;0.40;;;0.90;68.20;;;;;;4996420;28;20760;-68
2022/03/02 01:21:18;;;;;;;0.30;0.30;;;1.00;68.30;;;;;;4996026;28;20320;-67
2022/03/02 01:23:43;;;;;;;0.40;0.40;;;1.00;68.90;;;;;;4996049;28;20242;-67
2022/03/02 01:26:09;;;;;;;2.30;1.73;;;1.10;68.10;;;;;;4996028;28;20169;-67
2022/03/02 01:28:35;;;;;;;0.40;0.40;;;1.10;67.10;;;;;;4996452;28;20188;-67
2022/03/02 01:31:00;;;;;;;0.40;0.40;;;1.10;67.40;;;;;;4995768;28;20309;-67
2022/03/02 01:33:26;;;;;;;0.40;0.40;;;1.00;66.80;;;;;;4995887;28;20847;-67
2022/03/02 01:35:52;;;;;;;0.30;0.30;;;1.10;66.50;;;;;;4996088;28;20168;-67
2022/03/02 01:38:18;;;;;;;0.40;0.40;;;1.10;66.00;;;;;;4996172;28;20266;-66
2022/03/02 01:40:44;;;;;;;0.40;0.40;;;1.10;67.10;;;;;;4995712;28;20207;-67
2022/03/02 01:43:11;;;;;;;0.40;0.40;;;1.00;66.60;;;;;;4995813;28;20200;-67
2022/03/02 01:45:37;;;;;;;0.40;0.40;;;1.00;67.10;;;;;;4995924;28;20172;-68
2022/03/02 01:48:04;;;;;;;0.30;0.30;;;1.00;67.60;;;;;;4995862;28;20611;-68
2022/03/02 01:50:31;;;;;;;0.40;0.40;;;1.10;67.10;;;;;;4995509;28;20172;-67
2022/03/02 01:52:56;;;;;;;0.30;0.30;;;1.10;66.30;;;;;;4995592;28;20203;-68
2022/03/02 01:55:22;;;;;;;0.83;0.83;;;1.10;66.40;;;;;;4995515;28;20173;-67
2022/03/02 01:57:48;;;;;;;0.40;0.40;;;1.10;66.70;;;;;;4995640;28;20463;-67
2022/03/02 02:00:18;;;;;;;0.40;0.40;;;1.10;66.80;;;;;;4995289;28;20404;-67
2022/03/02 02:02:44;;;;;;;0.40;0.40;;;1.00;66.90;;;;;;4995336;28;20195;-67
2022/03/02 02:05:10;;;;;;;0.40;0.40;;;0.90;67.80;;;;;;4996008;28;20179;-68
2022/03/02 02:07:36;;;;;;;0.40;0.40;;;0.90;69.40;;;;;;4995434;28;20176;-68
2022/03/02 02:10:05;;;;;;;0.43;0.43;;;0.90;69.30;;;;;;4995047;28;20407;-67
2022/03/02 02:12:32;;;;;;;0.38;0.38;;;0.90;69.40;;;;;;4995001;28;20208;-68
2022/03/02 02:14:59;;;;;;;0.40;0.40;;;0.90;69.70;;;;;;4977701;28;20654;-67
2022/03/02 02:17:25;;;;;;;0.30;0.30;;;0.90;69.60;;;;;;4995035;28;20207;-68
2022/03/02 02:19:51;;;;;;;0.40;0.40;;;0.90;68.70;;;;;;4995006;28;20168;-68
2022/03/02 02:22:17;;;;;;;0.63;0.63;;;0.90;68.30;;;;;;4977532;28;20489;-68
2022/03/02 02:24:43;;;;;;;0.40;0.40;;;0.90;68.20;;;;;;4994998;28;20173;-67
2022/03/02 02:27:09;;;;;;;0.40;0.40;;;0.90;67.40;;;;;;4994935;28;20486;-68
2022/03/02 02:29:36;;;;;;;0.40;0.40;;;0.90;66.40;;;;;;4994967;28;20414;-68
2022/03/02 02:32:02;;;;;;;0.45;0.45;;;1.00;66.10;;;;;;4994687;28;20168;-67
2022/03/02 02:34:28;;;;;;;0.30;0.30;;;1.00;65.60;;;;;;4994716;28;20186;-66
2022/03/02 02:36:54;;;;;;;6.03;1.67;;;1.00;66.60;;;;;;4994867;28;20197;-68
2022/03/02 02:39:20;;;;;;;0.40;0.40;;;0.90;67.80;;;;;;4994741;28;20772;-68
2022/03/02 02:41:45;;;;;;;0.40;0.40;;;0.70;68.20;;;;;;4977182;28;20172;-68
2022/03/02 02:44:11;;;;;;;0.30;0.30;;;0.80;68.60;;;;;;4994600;28;20219;-67
2022/03/02 02:46:42;;;;;;;0.50;0.50;;;0.70;67.20;;;;;;4994566;28;20180;-67
2022/03/02 02:49:08;;;;;;;0.40;0.40;;;0.70;67.40;;;;;;4994730;28;20184;-69
2022/03/02 02:51:33;;;;;;;0.40;0.40;;;0.70;67.70;;;;;;4994379;28;20177;-68
2022/03/02 02:53:59;;;;;;;0.40;0.40;;;0.70;67.40;;;;;;4993777;28;20558;-67
2022/03/02 02:56:25;;;;;;;0.40;0.40;;;0.80;67.60;;;;;;4994725;28;20531;-67
2022/03/02 02:58:50;;;;;;;0.40;0.40;;;0.80;67.90;;;;;;4994528;28;20319;-68
2022/03/02 03:01:17;;;;;;;0.40;0.40;;;0.80;68.30;;;;;;4994280;28;20273;-68
2022/03/02 03:03:42;;;;;;;0.40;0.40;;;0.70;68.00;;;;;;4994309;28;20188;-68
2022/03/02 03:06:08;;;;;;;0.30;0.30;;;0.70;67.40;;;;;;4994270;28;20262;-68
2022/03/02 03:08:34;;;;;;;0.40;0.40;;;0.80;67.30;;;;;;4994307;28;20227;-68
2022/03/02 03:10:59;;;;;;;0.40;0.40;;;0.80;67.10;;;;;;4994326;28;20634;-68
2022/03/02 03:13:25;;;;;;;0.40;0.40;;;0.70;65.50;;;;;;4976649;28;20239;-68
2022/03/02 03:15:51;;;;;;;0.40;0.40;;;0.70;64.40;;;;;;4994339;28;20168;-68
2022/03/02 03:18:16;;;;;;;0.40;0.40;;;0.80;63.80;;;;;;4994188;28;20243;-67
2022/03/02 03:20:42;;;;;;;0.30;0.30;;;0.70;63.30;;;;;;4994109;28;20172;-68
2022/03/02 03:23:08;;;;;;;0.40;0.40;;;0.70;65.00;;;;;;4994047;28;20198;-68
2022/03/02 03:25:34;;;;;;;0.40;0.40;;;0.70;65.00;;;;;;4994161;28;20191;-68
2022/03/02 03:28:00;;;;;;;0.40;0.40;;;0.70;65.90;;;;;;4994257;28;20255;-68
2022/03/02 03:30:27;;;;;;;0.40;0.40;;;0.70;65.80;;;;;;4994093;28;20905;-67
2022/03/02 03:32:52;;;;;;;0.40;0.40;;;0.60;65.90;;;;;;4994122;28;20769;-68
2022/03/02 03:35:19;;;;;;;0.40;0.40;;;0.60;66.00;;;;;;4994414;28;20266;-68
2022/03/02 03:37:46;;;;;;;0.50;0.50;;;0.40;65.40;;;;;;4994113;28;20265;-68
2022/03/02 03:40:13;;;;;;;0.40;0.40;;;0.50;64.40;;;;;;4993764;28;20168;-69
2022/03/02 03:42:39;;;;;;;0.40;0.40;;;0.50;64.80;;;;;;4993954;28;20215;-68
2022/03/02 03:45:07;;;;;;;0.43;0.43;;;0.50;65.90;;;;;;4993921;28;20630;-68
2022/03/02 03:47:33;;;;;;;1.00;1.00;;;0.50;66.10;;;;;;4993731;28;20407;-67
2022/03/02 03:49:58;;;;;;;0.40;0.40;;;0.60;66.00;;;;;;4993926;28;20172;-68
2022/03/02 03:52:25;;;;;;;0.30;0.30;;;0.60;65.80;;;;;;4993743;28;20522;-68
2022/03/02 03:54:50;;;;;;;0.40;0.40;;;0.60;66.40;;;;;;4993939;28;20407;-67
2022/03/02 03:57:16;;;;;;;0.40;0.40;;;0.50;66.30;;;;;;4993869;28;20210;-68
2022/03/02 03:59:41;;;;;;;0.50;0.50;;;0.50;66.50;;;;;;4993927;28;20172;-67
2022/03/02 04:02:07;;;;;;;0.40;0.40;;;0.40;66.30;;;;;;4993687;28;20177;-67
2022/03/02 04:04:33;;;;;;;0.30;0.30;;;0.50;67.00;;;;;;4994762;28;20176;-69
2022/03/02 04:06:58;;;;;;;0.50;0.50;;;0.40;66.60;;;;;;4997566;28;20669;-68
2022/03/02 04:09:24;;;;;;;0.40;0.40;;;0.50;66.00;;;;;;4997548;28;20176;-67
2022/03/02 04:11:50;;;;;;;0.40;0.40;;;0.60;65.80;;;;;;4997338;28;20198;-68
2022/03/02 04:14:16;;;;;;;0.40;0.40;;;0.50;65.20;;;;;;4997358;28;20278;-67
2022/03/02 04:16:42;;;;;;;0.50;0.50;;;0.50;63.90;;;;;;4997426;28;20295;-68
2022/03/02 04:19:08;;;;;;;0.40;0.40;;;0.50;62.80;;;;;;4997842;28;20400;-67
2022/03/02 04:21:34;;;;;;;0.40;0.40;;;0.60;62.80;;;;;;4997172;28;20729;-66
2022/03/02 04:24:00;;;;;;;0.40;0.40;;;0.60;63.60;;;;;;4979717;28;20188;-68
2022/03/02 04:26:25;;;;;;;0.40;0.40;;;0.70;62.50;;;;;;4997423;28;20172;-68
2022/03/02 04:28:52;;;;;;;1.33;1.33;;;0.60;62.50;;;;;;4979882;28;20183;-67
2022/03/02 04:31:17;;;;;;;0.40;0.40;;;0.60;61.40;;;;;;4996936;28;20176;-68
2022/03/02 04:33:43;;;;;;;0.40;0.40;;;0.60;60.70;;;;;;4996999;28;20273;-67
2022/03/02 04:36:09;;;;;;;0.40;0.40;;;0.70;60.80;;;;;;4997102;28;20231;-66
2022/03/02 04:38:35;;;;;;;0.40;0.40;;;0.60;61.10;;;;;;4997082;28;20259;-67
2022/03/02 04:41:01;;;;;;;0.40;0.40;;;0.50;62.80;;;;;;4996755;28;20308;-68
2022/03/02 04:43:27;;;;;;;0.40;0.40;;;0.50;63.80;;;;;;4996981;28;20458;-67
2022/03/02 04:45:52;;;;;;;1.97;1.87;;;0.50;64.40;;;;;;4996783;28;20168;-68
2022/03/02 04:48:18;;;;;;;0.40;0.40;;;0.50;65.20;;;;;;4996803;28;20402;-67
2022/03/02 04:50:44;;;;;;;0.40;0.40;;;0.50;64.80;;;;;;4996594;28;20255;-67
2022/03/02 04:53:09;;;;;;;0.40;0.40;;;0.50;64.70;;;;;;4996931;28;20616;-68
2022/03/02 04:55:35;;;;;;;0.40;0.40;;;0.50;64.30;;;;;;4979293;28;20212;-67
2022/03/02 04:58:01;;;;;;;0.80;0.80;;;0.50;63.20;;;;;;4996702;28;20201;-69
2022/03/02 05:00:30;;;;;;;0.40;0.40;;;0.50;61.60;;;;;;4979022;28;20234;-68
2022/03/02 05:02:58;;;;;;;0.50;0.50;;;0.50;60.50;;;;;;4996471;28;20192;-67
2022/03/02 05:05:25;;;;;;;0.40;0.40;;;0.50;60.40;;;;;;4996598;28;20168;-68
2022/03/02 05:07:52;;;;;;;0.30;0.30;;;0.50;59.90;;;;;;4996454;28;20234;-67
2022/03/02 05:10:19;;;;;;;0.40;0.40;;;0.60;59.90;;;;;;4996346;28;20177;-67
2022/03/02 05:12:45;;;;;;;0.40;0.40;;;0.70;59.90;;;;;;4996171;28;20258;-67
2022/03/02 05:15:12;;;;;;;0.30;0.30;;;0.70;60.40;;;;;;4996539;28;20203;-68
2022/03/02 05:17:38;;;;;;;0.50;0.50;;;0.70;61.20;;;;;;4995234;28;20200;-67
2022/03/02 05:20:05;;;;;;;0.30;0.30;;;0.50;62.40;;;;;;4996012;28;20172;-67
2022/03/02 05:22:32;;;;;;;0.40;0.40;;;0.40;63.50;;;;;;4996097;28;20195;-67
2022/03/02 05:24:57;;;;;;;0.40;0.40;;;0.40;64.20;;;;;;4996123;28;20180;-69
2022/03/02 05:27:24;;;;;;;0.40;0.40;;;0.40;64.10;;;;;;4996249;28;20695;-68
2022/03/02 05:29:49;;;;;;;0.30;0.30;;;0.40;63.20;;;;;;4995975;28;20172;-69
2022/03/02 05:32:15;;;;;;;0.40;0.40;;;0.40;62.50;;;;;;4995766;28;20307;-69
2022/03/02 05:34:41;;;;;;;0.60;0.60;;;0.40;60.90;;;;;;4996088;28;20407;-68
2022/03/02 05:37:07;;;;;;;0.40;0.40;;;0.40;62.10;;;;;;4995771;28;20210;-68
2022/03/02 05:39:32;;;;;;;0.50;0.50;;;0.40;62.90;;;;;;4995819;28;20168;-68
2022/03/02 05:41:58;;;;;;;0.40;0.40;;;0.40;63.60;;;;;;4995524;28;20251;-69
2022/03/02 05:44:24;;;;;;;0.40;0.40;;;0.40;64.10;;;;;;4996193;28;20702;-68
2022/03/02 05:46:49;;;;;;;0.50;0.50;;;0.40;64.40;;;;;;4996095;28;20638;-69
2022/03/02 05:49:16;;;;;;;0.50;0.50;;;0.40;64.40;;;;;;4978328;28;20180;-68
2022/03/02 05:51:42;;;;;;;0.40;0.40;;;0.20;63.80;;;;;;4995483;28;20196;-68
2022/03/02 05:54:08;;;;;;;0.40;0.40;;;0.30;63.80;;;;;;4995462;28;20196;-69
2022/03/02 05:56:39;;;;;;;0.50;0.50;;;0.30;64.10;;;;;;4995609;28;20565;-69
2022/03/02 05:59:05;;;;;;;0.45;0.45;;;0.40;63.50;;;;;;4995653;28;20169;-69
2022/03/02 06:01:31;;;;;;;0.55;0.55;;;0.40;61.30;;;;;;4995333;28;20179;-69
2022/03/02 06:03:58;;;;;;;0.40;0.40;;;0.40;61.50;;;;;;4995348;28;20678;-69
2022/03/02 06:06:24;;;;;;;0.40;0.40;;;0.40;60.30;;;;;;4995295;28;20303;-69
2022/03/02 06:08:50;;;;;;;0.40;0.40;;;0.50;59.90;;;;;;4995222;28;20235;-69
2022/03/02 06:11:18;;;;;;;0.40;0.40;;;0.50;60.40;;;;;;4994943;28;20164;-69
2022/03/02 06:13:44;;;;;;;0.40;0.40;;;0.60;59.70;;;;;;4995556;28;20664;-68
2022/03/02 06:16:10;;;;;;;0.40;0.40;;;0.70;59.40;;;;;;4995297;28;20307;-68
2022/03/02 06:18:36;;;;;;;0.40;0.40;;;0.70;59.70;;;;;;4995083;28;20803;-68
2022/03/02 06:21:03;;;;;;;0.40;0.40;;;0.80;61.30;;;;;;4994993;28;20172;-67
2022/03/02 06:23:30;;;;;;;0.82;0.82;;;0.70;61.50;;;;;;4995079;28;20246;-68
2022/03/02 06:25:56;;;;;;;0.40;0.40;;;0.70;60.70;;;;;;4994946;28;20179;-68
2022/03/02 06:28:26;;;;;;;0.40;0.40;;;0.80;61.20;;;;;;4994790;28;20535;-68
2022/03/02 06:30:52;;;;;;;0.40;0.40;;;0.90;62.80;;;;;;4994682;28;20658;-68
2022/03/02 06:33:19;;;;;;;0.40;0.40;;;1.00;62.30;;;;;;4994861;28;20199;-68
2022/03/02 06:35:48;;;;;;;0.45;0.45;;;1.10;60.10;;;;;;4993747;28;20181;-69
2022/03/02 06:38:15;;;;;;;0.30;0.30;;;1.20;59.60;;;;;;4995363;28;20255;-68
2022/03/02 06:40:55;;;;;;;0.40;0.40;;;1.20;59.30;;;;;;4994919;28;20536;-69
2022/03/02 06:43:22;;;;;;;0.40;0.40;;;1.30;59.80;;;;;;4994821;28;20212;-69
2022/03/02 06:45:55;;;;;;;0.40;0.40;;;1.40;59.90;;;;;;4994717;28;20263;-68
2022/03/02 06:48:30;;;;;;;0.30;0.30;;;1.50;59.70;;;;;;4994739;28;20164;-69
2022/03/02 06:50:59;;;;;;;0.40;0.40;;;1.60;59.30;;;;;;4994468;28;20175;-69
2022/03/02 06:53:36;;;;;;;0.50;0.50;;;1.50;59.40;;;;;;4976998;28;20200;-69
2022/03/02 06:56:07;;;;;;;0.40;0.40;;;1.40;59.90;;;;;;4994684;28;20187;-69
2022/03/02 06:58:50;;;;;;;0.40;0.40;;;1.50;61.50;;;;;;4994676;28;20243;-68
2022/03/02 07:01:30;;;;;;;0.30;0.30;;;1.50;60.50;;;;;;4994151;28;20655;-69
2022/03/02 07:04:01;;;;;;;0.30;0.30;;;1.60;59.60;;;;;;4994345;28;20192;-68
2022/03/02 07:06:28;;;;;;;0.40;0.40;;;1.70;58.90;;;;;;4994447;28;20662;-68
2022/03/02 07:08:55;;;;;;;0.35;0.35;;;1.90;58.00;;;;;;4993753;28;20473;-69
2022/03/02 07:11:22;;;;;;;0.40;0.40;;;2.00;57.90;;;;;;4993730;28;20173;-67
2022/03/02 07:13:48;;;;;;;0.40;0.40;;;2.00;57.90;;;;;;4976703;28;20681;-69
2022/03/02 07:16:16;;;;;;;0.30;0.30;;;2.20;57.80;;;;;;4994434;28;20200;-68
2022/03/02 07:18:42;;;;;;;0.40;0.40;;;2.40;58.30;;;;;;4994257;28;20634;-69
2022/03/02 07:21:14;;;;;;;0.30;0.30;;;2.40;58.30;;;;;;4993951;28;20176;-69
2022/03/02 07:23:55;;;;;;;0.30;0.30;;;2.40;57.90;;;;;;4976694;28;20322;-70
2022/03/02 07:26:22;;;;;;;0.30;0.30;;;2.60;58.80;;;;;;4994795;28;20157;-68
2022/03/02 07:28:48;;;;;;;0.30;0.30;;;3.40;57.60;;;;;;4994266;28;20185;-68
2022/03/02 07:31:15;;;;;;;0.30;0.30;;;4.80;55.30;;;;;;4994066;28;20579;-70
2022/03/02 07:33:42;;;;;;;0.40;0.40;;;6.70;51.80;;;;;;4993914;28;20196;-69
2022/03/02 07:36:10;;;;;;;0.40;0.40;;;8.40;46.80;;;;;;4994128;28;20536;-69
2022/03/02 07:38:36;;;;;;;0.30;0.30;;;9.70;42.80;;;;;;4994071;28;20208;-69
2022/03/02 07:41:07;;;;;;;0.40;0.40;;;10.80;39.80;;;;;;4997326;28;20174;-69
2022/03/02 07:43:38;;;;;;;0.35;0.35;;;11.90;37.10;;;;;;4997942;28;20191;-69
2022/03/02 07:46:09;;;;;;;0.30;0.30;;;12.30;35.20;;;;;;4998068;28;20161;-69
2022/03/02 07:48:35;;;;;;;0.30;0.30;;;12.50;34.70;;;;;;4997897;28;20181;-69
2022/03/02 07:51:03;;;;;;;0.60;0.60;;;12.80;34.50;;;;;;4997693;28;20705;-70
2022/03/02 07:53:33;;;;;;;0.30;0.30;;;13.10;34.70;;;;;;4997921;28;20287;-68
2022/03/02 07:55:59;;;;;;;1.35;1.10;;;13.70;33.30;;;;;;4997954;28;20530;-69
2022/03/02 07:58:25;;;;;;;0.40;0.40;;;14.20;32.70;;;;;;4997696;28;20200;-69
2022/03/02 08:00:53;;;;;;;0.37;0.37;;;15.00;32.80;;;;;;4997500;28;20199;-69
2022/03/02 08:03:24;;;;;;;0.30;0.30;;;15.50;31.40;;;;;;4997409;28;20299;-68
2022/03/02 08:05:49;;;;;;;0.30;0.30;;;15.30;29.80;;;;;;4997686;28;20407;-70
2022/03/02 08:08:15;;;;;;;0.40;0.40;;;15.70;30.10;;;;;;4997746;28;20423;-70
2022/03/02 08:10:42;;;;;;;0.67;0.67;;;15.50;29.30;;;;;;4997741;28;20838;-70
2022/03/02 08:13:10;;;;;;;0.60;0.60;;;15.90;29.80;;;;;;4979911;28;20246;-70
2022/03/02 08:15:36;;;;;;;1.00;0.70;;;16.30;29.20;;;;;;4997453;28;20441;-69
2022/03/02 08:18:02;;;;;;;0.70;0.70;;;16.30;29.10;;;;;;4997467;28;20451;-69
2022/03/02 08:20:28;;;;;;;1.27;1.20;;;16.10;30.00;;;;;;4997149;28;20408;-70
2022/03/02 08:22:56;;;;;;;0.50;0.50;;;16.20;29.30;;;;;;4997659;28;20602;-69
2022/03/02 08:25:24;;;;;;;3.53;1.13;;;16.60;29.50;;;;;;4997103;28;20521;-69
2022/03/02 08:27:52;;;;;;;0.30;0.30;;;16.90;28.90;;;;;;4997310;28;20458;-69
2022/03/02 08:30:18;;;;;;;0.40;0.40;;;17.30;28.40;;;;;;4997205;28;20464;-70
2022/03/02 08:32:46;;;;;;;0.70;0.70;;;17.40;27.50;;;;;;4997223;28;20798;-70
2022/03/02 08:35:12;;;;;;;0.40;0.40;;;17.20;28.10;;;;;;4996951;28;20425;-69
2022/03/02 08:37:40;;;;;;;1.60;1.00;;;17.20;28.30;;;;;;4996959;28;20465;-68
2022/03/02 08:40:07;;;;;;;0.40;0.40;;;17.70;29.10;;;;;;4996776;28;20403;-68
2022/03/02 08:42:33;;;;;;;0.50;0.50;;;18.00;25.50;;;;;;4996933;28;20525;-69
2022/03/02 08:44:59;;;;;;;0.60;0.60;;;18.40;24.80;;;;;;4979428;28;20475;-71
2022/03/02 08:47:25;;;;;;;0.30;0.30;;;18.40;26.30;;;;;;4996995;28;20649;-69
2022/03/02 08:49:51;;;;;;;0.40;0.40;;;18.60;26.10;;;;;;4996723;28;20402;-70
2022/03/02 08:52:29;;;;;;;0.70;0.70;;;18.90;26.40;;;;;;4995203;28;20435;-69
2022/03/02 08:54:56;;;;;;;0.40;0.40;;;19.40;26.80;;;;;;4996737;28;20405;-68
2022/03/02 08:57:23;;;;;;;0.30;0.30;;;19.80;26.70;;;;;;4996768;28;20462;-70
2022/03/02 08:59:53;;;;;;;0.40;0.40;;;20.00;26.60;;;;;;4996821;28;20411;-69
2022/03/02 09:02:24;;;;;;;0.40;0.40;;;19.80;25.10;;;;;;4996683;28;20431;-69
2022/03/02 09:04:50;;;;;;;0.70;0.70;;;19.30;24.70;;;;;;4996718;28;20410;-70
2022/03/02 09:07:18;;;;;;;0.40;0.40;;;18.60;26.40;;;;;;4996560;28;20407;-69
2022/03/02 09:09:44;;;;;;;0.40;0.40;;;17.80;26.80;;;;;;4996584;28;20419;-69
2022/03/02 09:12:10;;;;;;;2.07;1.33;;;17.10;26.60;;;;;;4996070;28;20439;-69
2022/03/02 09:14:37;;;;;;;0.30;0.30;;;16.90;27.30;;;;;;4996273;28;20173;-70
2022/03/02 09:17:05;;;;;;;0.40;0.40;;;16.70;27.70;;;;;;4996242;28;20208;-70
2022/03/02 09:19:32;;;;;;;0.40;0.40;;;17.00;28.10;;;;;;4996439;28;20450;-69
2022/03/02 09:21:58;;;;;;;0.40;0.40;;;17.40;28.30;;;;;;4996037;28;20516;-68
2022/03/02 09:24:29;;;;;;;2.30;2.20;;;17.40;28.60;;;;;;4996122;28;20775;-69
2022/03/02 09:26:57;;;;;;;0.30;0.30;;;17.10;28.20;;;;;;4996312;28;20395;-69
2022/03/02 09:29:29;;;;;;;0.40;0.40;;;17.20;28.90;;;;;;4996046;28;20415;-70
2022/03/02 09:31:57;;;;;;;0.30;0.30;;;17.50;27.40;;;;;;4995968;28;20408;-69
2022/03/02 09:34:26;;;;;;;0.40;0.40;;;17.80;27.00;;;;;;4978484;28;20426;-69
2022/03/02 09:36:54;;;;;;;0.40;0.40;;;18.10;28.40;;;;;;4995885;28;20463;-71
2022/03/02 09:39:20;;;;;;;0.30;0.30;;;18.30;27.50;;;;;;4996066;28;20399;-68
2022/03/02 09:42:11;;;;;;;0.40;0.40;;;19.10;27.00;;;;;;4995638;28;20439;-70
2022/03/02 09:44:45;;;;;;;0.30;0.30;;;19.90;26.20;;;;;;4995985;28;20395;-66
2022/03/02 09:47:17;;;;;;;0.30;0.30;;;20.80;25.90;;;;;;4995927;28;20419;-66
2022/03/02 09:49:53;;;;;;;1.63;1.63;;;20.80;25.40;;;;;;4995985;28;20411;-68
2022/03/02 09:52:20;;;;;;;0.50;0.50;;;20.20;24.40;;;;;;4995975;28;20427;-67
2022/03/02 09:54:50;;;;;;;0.60;0.60;;;19.30;24.70;;;;;;4995679;28;20414;-67
2022/03/02 09:57:19;;;;;;;0.30;0.30;;;18.40;26.40;;;;;;4995707;28;20828;-68
2022/03/02 09:59:54;;;;;;;0.40;0.40;;;18.00;27.30;;;;;;4995552;28;20903;-68
2022/03/02 10:02:41;;;;;;;0.60;0.60;;;17.40;28.30;;;;;;4995216;28;20840;-67
2022/03/02 10:05:12;;;;;;;0.30;0.30;;;17.40;27.50;;;;;;4995832;28;20809;-67
2022/03/02 10:07:47;;;;;;;0.30;0.30;;;16.90;27.10;;;;;;4977968;28;20415;-67
2022/03/02 10:10:17;;;;;;;0.60;0.60;;;16.30;27.00;;;;;;4995362;28;20424;-67
2022/03/02 10:12:43;;;;;;;1.53;0.97;;;15.50;26.30;;;;;;4995132;28;20455;-66
2022/03/02 10:15:13;;;;;;;0.30;0.30;;;14.90;26.50;;;;;;4995157;28;20419;-66
2022/03/02 10:17:44;;;;;;;0.30;0.30;;;14.80;27.10;;;;;;4995091;28;20468;-66
2022/03/02 10:20:11;;;;;;;0.30;0.30;;;14.80;26.40;;;;;;4995174;28;20437;-66
2022/03/02 10:22:39;;;;;;;0.60;0.60;;;14.40;25.20;;;;;;4995069;28;20435;-66
2022/03/02 10:25:11;;;;;;;0.30;0.30;;;14.30;24.80;;;;;;4994998;28;20413;-66
2022/03/02 10:27:58;;;;;;;2.70;2.53;;;14.10;24.90;;;;;;4995074;28;20414;-67
2022/03/02 10:30:31;;;;;;;1.43;0.80;;;14.00;25.90;;;;;;4994744;28;20502;-67
2022/03/02 10:33:11;;;;;;;0.30;0.30;;;14.00;26.30;;;;;;4994889;28;20430;-68
2022/03/02 10:35:48;;;;;;;0.30;0.30;;;13.70;26.90;;;;;;4994822;28;20816;-66
2022/03/02 10:38:16;;;;;;;0.30;0.30;;;13.60;28.80;;;;;;4994726;28;20528;-67
2022/03/02 10:40:43;;;;;;;0.30;0.30;;;13.60;28.60;;;;;;4994781;28;20428;-67
2022/03/02 10:43:15;;;;;;;0.40;0.40;;;13.20;29.10;;;;;;4994978;28;20427;-67
2022/03/02 10:45:49;;;;;;;0.50;0.50;;;12.90;29.70;;;;;;4994695;28;20754;-67
2022/03/02 10:48:38;;;;;;;0.30;0.30;;;13.00;29.90;;;;;;4994817;28;20411;-67
2022/03/02 10:51:08;;;;;;;0.30;0.30;;;13.00;30.20;;;;;;4994583;28;20431;-67
2022/03/02 10:53:37;;;;;;;0.60;0.60;;;13.20;30.20;;;;;;4994558;28;20517;-66
2022/03/02 10:56:05;;;;;;;0.40;0.40;;;13.50;30.00;;;;;;4994583;28;20404;-66
2022/03/02 10:58:31;;;;;;;0.50;0.50;;;13.70;30.00;;;;;;4994524;28;20458;-67
2022/03/02 11:01:00;;;;;;;0.60;0.60;;;14.10;29.90;;;;;;4994217;28;20422;-66
2022/03/02 11:03:34;;;;;;;1.03;1.03;;;14.20;29.70;;;;;;4994267;28;20423;-66
2022/03/02 11:06:02;;;;;;;0.30;0.30;;;14.70;29.40;;;;;;4994559;28;20415;-67
2022/03/02 11:08:29;;;;;;;0.50;0.50;;;15.10;29.40;;;;;;4994382;28;20439;-66
2022/03/02 11:10:55;;;;;;;0.73;0.73;;;15.50;29.00;;;;;;4994168;28;20462;-65
2022/03/02 11:13:23;;;;;;;0.40;0.40;;;15.50;28.80;;;;;;4994086;28;20458;-67
2022/03/02 11:15:56;;;;;;;0.30;0.30;;;15.50;28.20;;;;;;4993890;28;20409;-67
2022/03/02 11:18:33;;;;;;;0.83;0.83;;;15.20;29.00;;;;;;4994168;28;20481;-66
2022/03/02 11:21:02;;;;;;;2.30;1.03;;;15.40;29.20;;;;;;4993938;28;20403;-66
2022/03/02 11:23:32;;;;;;;23.10;1.77;;;15.20;28.90;;;;;;4994064;28;20431;-67
2022/03/02 11:26:06;;;;;;;0.80;0.80;;;14.80;29.20;;;;;;4976598;28;20772;-66
2022/03/02 11:28:32;;;;;;;0.30;0.30;;;14.80;29.60;;;;;;4994293;28;20771;-68
2022/03/02 11:31:04;;;;;;;1.43;1.43;;;15.00;29.50;;;;;;4993821;28;20422;-68
2022/03/02 11:33:30;;;;;;;0.73;0.73;;;15.10;29.50;;;;;;4994091;28;20439;-67
2022/03/02 11:36:07;;;;;;;0.30;0.30;;;15.20;30.00;;;;;;4993951;28;20420;-66
2022/03/02 11:38:33;;;;;;;0.30;0.30;;;15.10;29.70;;;;;;4994054;28;20442;-65
2022/03/02 11:41:00;;;;;;;0.30;0.30;;;14.70;29.60;;;;;;4993834;28;20411;-68
2022/03/02 11:43:29;;;;;;;0.40;0.40;;;14.30;30.70;;;;;;4993873;28;20431;-67
2022/03/02 11:46:03;;;;;;;0.40;0.40;;;14.20;30.40;;;;;;4994011;28;20821;-68
2022/03/02 11:48:34;;;;;;;0.30;0.30;;;14.30;30.10;;;;;;4994182;28;20403;-67
2022/03/02 11:51:17;;;;;;;0.40;0.40;;;14.00;30.00;;;;;;4976385;28;20477;-66
2022/03/02 11:53:45;;;;;;;0.40;0.40;;;14.00;30.70;;;;;;4993899;28;20450;-67
2022/03/02 11:56:20;;;;;;;0.40;0.40;;;13.90;30.60;;;;;;4993886;28;20411;-67
2022/03/02 11:58:58;;;;;;;0.30;0.30;;;14.10;31.10;;;;;;4993968;28;20454;-67
2022/03/02 12:01:26;;;;;;;1.23;1.23;;;14.10;29.90;;;;;;4993618;28;20414;-67
2022/03/02 12:03:58;;;;;;;1.33;1.33;;;14.30;29.60;;;;;;4993600;28;20459;-66
2022/03/02 12:06:26;;;;;;;0.30;0.30;;;14.80;29.50;;;;;;4993847;28;20866;-65
2022/03/02 12:08:54;;;;;;;0.30;0.30;;;15.00;32.10;;;;;;4976402;28;20432;-66
2022/03/02 12:11:34;;;;;;;2.43;1.43;;;14.70;29.80;;;;;;4993553;28;20458;-68
2022/03/02 12:14:12;;;;;;;0.30;0.30;;;14.90;30.00;;;;;;4993632;28;20459;-67
2022/03/02 12:16:43;;;;;;;0.30;0.30;;;14.90;30.70;;;;;;4993767;28;20410;-67
2022/03/02 12:19:24;;;;;;;0.60;0.60;;;15.00;34.30;;;;;;4993773;28;20448;-66
2022/03/02 12:21:53;;;;;;;0.40;0.40;;;15.00;32.80;;;;;;4993592;28;20403;-67
2022/03/02 12:24:26;;;;;;;0.30;0.30;;;14.90;31.80;;;;;;4993692;28;20502;-67
2022/03/02 12:26:59;;;;;;;0.60;0.60;;;14.80;31.90;;;;;;4996725;28;20440;-67
2022/03/02 12:29:26;;;;;;;1.03;1.03;;;14.60;31.60;;;;;;4997428;28;20417;-67
2022/03/02 12:32:06;;;;;;;0.40;0.40;;;14.70;32.30;;;;;;4997092;28;20411;-67
2022/03/02 12:34:35;;;;;;;0.30;0.30;;;14.80;31.40;;;;;;4997120;28;20390;-67
2022/03/02 12:37:02;;;;;;;0.30;0.30;;;14.60;31.70;;;;;;4996961;28;21010;-67
2022/03/02 12:39:29;;;;;;;0.50;0.50;;;14.40;32.30;;;;;;4997202;28;20448;-67
2022/03/02 12:41:55;;;;;;;0.77;0.77;;;14.50;31.50;;;;;;4996945;28;20501;-67
2022/03/02 12:44:21;;;;;;;0.30;0.30;;;14.70;30.80;;;;;;4996845;28;20506;-67
2022/03/02 12:46:51;;;;;;;0.30;0.30;;;14.80;30.90;;;;;;4996931;28;20408;-67
2022/03/02 12:49:17;;;;;;;2.33;2.23;;;15.00;30.40;;;;;;4996747;28;20487;-68
2022/03/02 12:51:46;;;;;;;0.30;0.30;;;15.10;30.70;;;;;;4996689;28;20410;-66
2022/03/02 12:54:12;;;;;;;0.40;0.40;;;14.90;31.20;;;;;;4996850;28;20440;-67
2022/03/02 12:56:38;;;;;;;2.50;2.40;;;15.00;31.30;;;;;;4996706;28;20407;-65